MiSS Mallory — WDB5044 — position and weather

sailwx.info

Track history (hours):
 
Tides and Currents Weather Stations Pressure Air Temp Water Temp Dewpoint Dewpoint Depression Visibility Wind Speed Wind Dir Waves Ship Positions

MiSS Mallory

Owner: POTOMAC RIVERBOAT COMPANY, ALEXANDRIA, VA. More information available from US FCC via Universal Licensing System and Coast Guard Vessel Documentation Center.

Last reported at 2017-Sep-24 03:26 UTC. Time now 2017-Sep-24 10:13 UTC.
Position N 38°47' W 077°01'.

Length 22 m; draft 2 m.

Type: Passenger vessel. MMSI: 366905270.

Date/timePositionNaut miles runAvg speedWind from/ knotsBaromVisibWave heightAir tempDewpointWater temp
2017-Sep-24 03:26N 38°47' W 077°01'2 3.5
2017-Sep-24 03:00N 38°48' W 077°02'0 0.2
2017-Sep-24 02:30N 38°48' W 077°02'3 5.2
2017-Sep-24 02:00N 38°51' W 077°01'4 7.4
2017-Sep-24 01:30N 38°54' W 077°04'2 3.9
2017-Sep-24 01:00N 38°52' W 077°02'4 8.3
2017-Sep-24 00:30N 38°48' W 077°02'3 5.2
2017-Sep-24 00:00N 38°51' W 077°01'4 7.4
2017-Sep-23 23:29N 38°54' W 077°04'2 4.7
2017-Sep-23 23:00N 38°52' W 077°02'4 7.7
2017-Sep-23 22:30N 38°48' W 077°02'2 4.7
2017-Sep-23 22:00N 38°50' W 077°01'4 7.9
2017-Sep-23 21:30N 38°54' W 077°04'2 4.8
2017-Sep-23 21:00N 38°52' W 077°02'4 7.3
2017-Sep-23 20:29N 38°48' W 077°02'3 6.3
2017-Sep-23 20:00N 38°51' W 077°01'4 0.1
2017-Sep-21 23:55N 38°47' W 077°01'0 0.4
2017-Sep-21 23:30N 38°47' W 077°01'713.1
2017-Sep-21 23:00N 38°41' W 077°06'5 2.5
2017-Sep-21 21:04N 38°37' W 077°08'116.1
2017-Sep-21 20:59N 38°38' W 077°08'1 0.4
2017-Sep-21 17:07N 38°37' W 077°08'216.3
2017-Sep-21 17:00N 38°39' W 077°08'714.5
2017-Sep-21 16:29N 38°45' W 077°02'2 0.1
2017-Sep-20 22:48N 38°47' W 077°01'0 0.9
2017-Sep-20 22:30N 38°47' W 077°01'2 3.0
2017-Sep-20 21:59N 38°48' W 077°02'0 0.7
2017-Sep-20 21:29N 38°49' W 077°02'0 0.7
2017-Sep-20 21:00N 38°48' W 077°02'0 0.1
2017-Sep-20 20:29N 38°48' W 077°02'0 0.0
2017-Sep-20 20:00N 38°48' W 077°02'0 0.0
2017-Sep-20 19:30N 38°48' W 077°02'0 0.1
2017-Sep-20 19:00N 38°48' W 077°02'3 6.9
2017-Sep-20 18:29N 38°52' W 077°02'3 6.1
2017-Sep-20 18:00N 38°54' W 077°04'3 6.7
2017-Sep-20 17:31N 38°51' W 077°02'3 6.0
2017-Sep-20 16:58N 38°48' W 077°02'0 0.0
2017-Sep-20 16:29N 38°48' W 077°02'0 0.0
2017-Sep-20 15:59N 38°48' W 077°02'0 0.1
2017-Sep-20 15:29N 38°48' W 077°02'0 0.0
2017-Sep-20 15:00N 38°48' W 077°02'2 0.1
2017-Sep-19 22:20N 38°47' W 077°01'1 4.5
2017-Sep-19 22:00N 38°48' W 077°02'0 0.4
2017-Sep-19 21:29N 38°48' W 077°02'0 0.0
2017-Sep-19 21:00N 38°48' W 077°02'0 0.0
2017-Sep-19 20:30N 38°48' W 077°02'0 0.0
2017-Sep-19 20:00N 38°48' W 077°02'0 0.0
2017-Sep-19 19:30N 38°48' W 077°02'0 0.0
2017-Sep-19 19:00N 38°48' W 077°02'0 0.0
2017-Sep-19 18:30N 38°48' W 077°02'0 0.0
2017-Sep-19 18:00N 38°48' W 077°02'0 0.0
2017-Sep-19 17:29N 38°48' W 077°02'0 0.0
2017-Sep-19 16:59N 38°48' W 077°02'0 0.0
2017-Sep-19 16:29N 38°48' W 077°02'0 0.0
2017-Sep-19 15:59N 38°48' W 077°02'0 0.0
2017-Sep-19 15:30N 38°48' W 077°02'0 0.0
2017-Sep-19 14:59N 38°48' W 077°02'0 0.0
2017-Sep-19 14:30N 38°48' W 077°02'0 0.0
2017-Sep-19 14:00N 38°48' W 077°02'0 0.3
2017-Sep-19 13:30N 38°48' W 077°02'0 0.3
2017-Sep-19 13:00N 38°48' W 077°02'0 0.1
2017-Sep-19 12:29N 38°48' W 077°02'0 0.0
2017-Sep-18 01:21N 38°48' W 077°02'2 5.6
2017-Sep-18 01:00N 38°50' W 077°02'4 8.6
2017-Sep-18 00:30N 38°54' W 077°04'2 4.5
2017-Sep-18 00:00N 38°52' W 077°02'4 7.5
2017-Sep-17 23:29N 38°48' W 077°02'3 5.7
2017-Sep-17 23:00N 38°51' W 077°01'4 6.9
2017-Sep-17 22:29N 38°54' W 077°04'2 4.3
2017-Sep-17 21:59N 38°52' W 077°02'4 7.9
2017-Sep-17 21:29N 38°48' W 077°02'2 5.0
2017-Sep-17 21:00N 38°51' W 077°01'4 7.7
2017-Sep-17 20:30N 38°54' W 077°04'2 4.0
2017-Sep-17 20:00N 38°52' W 077°02'4 7.9
2017-Sep-17 19:29N 38°48' W 077°02'3 5.3
2017-Sep-17 19:00N 38°51' W 077°01'4 7.6
2017-Sep-17 18:30N 38°54' W 077°04'2 4.4
2017-Sep-17 17:59N 38°52' W 077°02'4 7.9
2017-Sep-17 17:30N 38°48' W 077°02'3 5.4
2017-Sep-17 17:00N 38°51' W 077°01'4 7.1
2017-Sep-17 16:29N 38°54' W 077°04'2 4.7
2017-Sep-17 16:00N 38°52' W 077°02'4 7.9
2017-Sep-17 15:30N 38°48' W 077°02'0 0.0
2017-Sep-17 14:59N 38°48' W 077°02'0 0.0
2017-Sep-17 14:30N 38°48' W 077°02'0 0.0
2017-Sep-17 03:24N 38°48' W 077°02'2 5.1
2017-Sep-17 03:00N 38°50' W 077°02'4 8.2
2017-Sep-17 02:29N 38°54' W 077°04'2 5.0
2017-Sep-17 02:00N 38°52' W 077°02'4 7.1
2017-Sep-17 01:29N 38°48' W 077°02'3 5.4
2017-Sep-17 01:00N 38°51' W 077°01'4 7.2
2017-Sep-17 00:29N 38°54' W 077°04'3 6.1
2017-Sep-17 00:00N 38°52' W 077°02'3 6.6
2017-Sep-16 23:29N 38°48' W 077°02'3 5.2
2017-Sep-16 23:00N 38°51' W 077°01'4 7.3
2017-Sep-16 22:29N 38°54' W 077°04'3 5.1
2017-Sep-16 21:59N 38°52' W 077°02'4 7.4
2017-Sep-16 21:29N 38°48' W 077°02'3 5.7
2017-Sep-16 20:59N 38°51' W 077°01'4 7.3
2017-Sep-16 20:30N 38°54' W 077°04'2 3.9
2017-Sep-16 20:00N 38°52' W 077°02'4 7.8
2017-Sep-16 19:29N 38°48' W 077°02'3 5.2
2017-Sep-16 18:59N 38°51' W 077°01'4 7.4
2017-Sep-16 18:29N 38°54' W 077°04'2 5.1
2017-Sep-16 18:00N 38°52' W 077°02'4 7.7
2017-Sep-16 17:30N 38°48' W 077°02'3 5.1
2017-Sep-16 17:00N 38°51' W 077°01'4 7.0
2017-Sep-16 16:28N 38°54' W 077°04'2 4.4
2017-Sep-16 16:00N 38°52' W 077°02'4 8.1
2017-Sep-16 15:30N 38°48' W 077°02'0 0.2
2017-Sep-16 14:59N 38°48' W 077°02'0 0.5
2017-Sep-16 14:29N 38°48' W 077°02'1 2.6
2017-Sep-16 13:59N 38°47' W 077°01'0 0.0
2017-Sep-16 13:29N 38°47' W 077°01'0 0.0
2017-Sep-15 01:20N 38°47' W 077°01'1 4.4
2017-Sep-15 01:00N 38°48' W 077°02'0 0.3
2017-Sep-15 00:30N 38°48' W 077°02'0 0.2
2017-Sep-14 23:59N 38°48' W 077°02'2 4.5
2017-Sep-14 23:30N 38°50' W 077°02'1 2.7
2017-Sep-14 23:00N 38°52' W 077°02'3 5.8
2017-Sep-14 22:30N 38°49' W 077°02'0 0.8
2017-Sep-14 22:00N 38°48' W 077°02'0 0.1
2017-Sep-14 21:30N 38°48' W 077°02'0 0.0
2017-Sep-14 20:59N 38°48' W 077°02'0 0.0
2017-Sep-14 20:28N 38°48' W 077°02'0 0.0
2017-Sep-14 20:00N 38°48' W 077°02'0 0.0
2017-Sep-14 19:29N 38°48' W 077°02'0 0.0
2017-Sep-14 18:58N 38°48' W 077°02'0 0.0
2017-Sep-14 18:29N 38°48' W 077°02'0 0.0
2017-Sep-14 17:59N 38°48' W 077°02'0 0.0
2017-Sep-14 17:25N 38°48' W 077°02'0 0.0
2017-Sep-14 16:59N 38°48' W 077°02'0 0.0
2017-Sep-14 16:28N 38°48' W 077°02'0 0.0
2017-Sep-14 15:58N 38°48' W 077°02'0 0.0
2017-Sep-14 15:30N 38°48' W 077°02'0 0.0
2017-Sep-14 14:59N 38°48' W 077°02'0 0.0
2017-Sep-14 14:30N 38°48' W 077°02'  
Track history (hours):
 
Tides and Currents Weather Stations Pressure Air Temp Water Temp Dewpoint Dewpoint Depression Visibility Wind Speed Wind Dir Waves Ship Positions

MiSS Mallory

Owner: POTOMAC RIVERBOAT COMPANY, ALEXANDRIA, VA. More information available from US FCC via Universal Licensing System and Coast Guard Vessel Documentation Center.

Last reported at 2017-Sep-24 03:26 UTC. Time now 2017-Sep-24 10:13 UTC.
Position N 38°47' W 077°01'.

Length 22 m; draft 2 m.

Type: Passenger vessel. MMSI: 366905270.

Date/timePositionNaut miles runAvg speedWind from/ knotsBaromVisibWave heightAir tempDewpointWater temp
2017-Sep-24 03:26N 38°47' W 077°01'2 3.5
2017-Sep-24 03:00N 38°48' W 077°02'0 0.2
2017-Sep-24 02:30N 38°48' W 077°02'3 5.2
2017-Sep-24 02:00N 38°51' W 077°01'4 7.4
2017-Sep-24 01:30N 38°54' W 077°04'2 3.9
2017-Sep-24 01:00N 38°52' W 077°02'4 8.3
2017-Sep-24 00:30N 38°48' W 077°02'3 5.2
2017-Sep-24 00:00N 38°51' W 077°01'4 7.4
2017-Sep-23 23:29N 38°54' W 077°04'2 4.7
2017-Sep-23 23:00N 38°52' W 077°02'4 7.7
2017-Sep-23 22:30N 38°48' W 077°02'2 4.7
2017-Sep-23 22:00N 38°50' W 077°01'4 7.9
2017-Sep-23 21:30N 38°54' W 077°04'2 4.8
2017-Sep-23 21:00N 38°52' W 077°02'4 7.3
2017-Sep-23 20:29N 38°48' W 077°02'3 6.3
2017-Sep-23 20:00N 38°51' W 077°01'4 0.1
2017-Sep-21 23:55N 38°47' W 077°01'0 0.4
2017-Sep-21 23:30N 38°47' W 077°01'713.1
2017-Sep-21 23:00N 38°41' W 077°06'5 2.5
2017-Sep-21 21:04N 38°37' W 077°08'116.1
2017-Sep-21 20:59N 38°38' W 077°08'1 0.4
2017-Sep-21 17:07N 38°37' W 077°08'216.3
2017-Sep-21 17:00N 38°39' W 077°08'714.5
2017-Sep-21 16:29N 38°45' W 077°02'2 0.1
2017-Sep-20 22:48N 38°47' W 077°01'0 0.9
2017-Sep-20 22:30N 38°47' W 077°01'2 3.0
2017-Sep-20 21:59N 38°48' W 077°02'0 0.7
2017-Sep-20 21:29N 38°49' W 077°02'0 0.7
2017-Sep-20 21:00N 38°48' W 077°02'0 0.1
2017-Sep-20 20:29N 38°48' W 077°02'0 0.0
2017-Sep-20 20:00N 38°48' W 077°02'0 0.0
2017-Sep-20 19:30N 38°48' W 077°02'0 0.1
2017-Sep-20 19:00N 38°48' W 077°02'3 6.9
2017-Sep-20 18:29N 38°52' W 077°02'3 6.1
2017-Sep-20 18:00N 38°54' W 077°04'3 6.7
2017-Sep-20 17:31N 38°51' W 077°02'3 6.0
2017-Sep-20 16:58N 38°48' W 077°02'0 0.0
2017-Sep-20 16:29N 38°48' W 077°02'0 0.0
2017-Sep-20 15:59N 38°48' W 077°02'0 0.1
2017-Sep-20 15:29N 38°48' W 077°02'0 0.0
2017-Sep-20 15:00N 38°48' W 077°02'2 0.1
2017-Sep-19 22:20N 38°47' W 077°01'1 4.5
2017-Sep-19 22:00N 38°48' W 077°02'0 0.4
2017-Sep-19 21:29N 38°48' W 077°02'0 0.0
2017-Sep-19 21:00N 38°48' W 077°02'0 0.0
2017-Sep-19 20:30N 38°48' W 077°02'0 0.0
2017-Sep-19 20:00N 38°48' W 077°02'0 0.0
2017-Sep-19 19:30N 38°48' W 077°02'0 0.0
2017-Sep-19 19:00N 38°48' W 077°02'0 0.0
2017-Sep-19 18:30N 38°48' W 077°02'0 0.0
2017-Sep-19 18:00N 38°48' W 077°02'0 0.0
2017-Sep-19 17:29N 38°48' W 077°02'0 0.0
2017-Sep-19 16:59N 38°48' W 077°02'0 0.0
2017-Sep-19 16:29N 38°48' W 077°02'0 0.0
2017-Sep-19 15:59N 38°48' W 077°02'0 0.0
2017-Sep-19 15:30N 38°48' W 077°02'0 0.0
2017-Sep-19 14:59N 38°48' W 077°02'0 0.0
2017-Sep-19 14:30N 38°48' W 077°02'0 0.0
2017-Sep-19 14:00N 38°48' W 077°02'0 0.3
2017-Sep-19 13:30N 38°48' W 077°02'0 0.3
2017-Sep-19 13:00N 38°48' W 077°02'0 0.1
2017-Sep-19 12:29N 38°48' W 077°02'0 0.0
2017-Sep-18 01:21N 38°48' W 077°02'2 5.6
2017-Sep-18 01:00N 38°50' W 077°02'4 8.6
2017-Sep-18 00:30N 38°54' W 077°04'2 4.5
2017-Sep-18 00:00N 38°52' W 077°02'4 7.5
2017-Sep-17 23:29N 38°48' W 077°02'3 5.7
2017-Sep-17 23:00N 38°51' W 077°01'4 6.9
2017-Sep-17 22:29N 38°54' W 077°04'2 4.3
2017-Sep-17 21:59N 38°52' W 077°02'4 7.9
2017-Sep-17 21:29N 38°48' W 077°02'2 5.0
2017-Sep-17 21:00N 38°51' W 077°01'4 7.7
2017-Sep-17 20:30N 38°54' W 077°04'2 4.0
2017-Sep-17 20:00N 38°52' W 077°02'4 7.9
2017-Sep-17 19:29N 38°48' W 077°02'3 5.3
2017-Sep-17 19:00N 38°51' W 077°01'4 7.6
2017-Sep-17 18:30N 38°54' W 077°04'2 4.4
2017-Sep-17 17:59N 38°52' W 077°02'4 7.9
2017-Sep-17 17:30N 38°48' W 077°02'3 5.4
2017-Sep-17 17:00N 38°51' W 077°01'4 7.1
2017-Sep-17 16:29N 38°54' W 077°04'2 4.7
2017-Sep-17 16:00N 38°52' W 077°02'4 7.9
2017-Sep-17 15:30N 38°48' W 077°02'0 0.0
2017-Sep-17 14:59N 38°48' W 077°02'0 0.0
2017-Sep-17 14:30N 38°48' W 077°02'0 0.0
2017-Sep-17 03:24N 38°48' W 077°02'2 5.1
2017-Sep-17 03:00N 38°50' W 077°02'4 8.2
2017-Sep-17 02:29N 38°54' W 077°04'2 5.0
2017-Sep-17 02:00N 38°52' W 077°02'4 7.1
2017-Sep-17 01:29N 38°48' W 077°02'3 5.4
2017-Sep-17 01:00N 38°51' W 077°01'4 7.2
2017-Sep-17 00:29N 38°54' W 077°04'3 6.1
2017-Sep-17 00:00N 38°52' W 077°02'3 6.6
2017-Sep-16 23:29N 38°48' W 077°02'3 5.2
2017-Sep-16 23:00N 38°51' W 077°01'4 7.3
2017-Sep-16 22:29N 38°54' W 077°04'3 5.1
2017-Sep-16 21:59N 38°52' W 077°02'4 7.4
2017-Sep-16 21:29N 38°48' W 077°02'3 5.7
2017-Sep-16 20:59N 38°51' W 077°01'4 7.3
2017-Sep-16 20:30N 38°54' W 077°04'2 3.9
2017-Sep-16 20:00N 38°52' W 077°02'4 7.8
2017-Sep-16 19:29N 38°48' W 077°02'3 5.2
2017-Sep-16 18:59N 38°51' W 077°01'4 7.4
2017-Sep-16 18:29N 38°54' W 077°04'2 5.1
2017-Sep-16 18:00N 38°52' W 077°02'4 7.7
2017-Sep-16 17:30N 38°48' W 077°02'3 5.1
2017-Sep-16 17:00N 38°51' W 077°01'4 7.0
2017-Sep-16 16:28N 38°54' W 077°04'2 4.4
2017-Sep-16 16:00N 38°52' W 077°02'4 8.1
2017-Sep-16 15:30N 38°48' W 077°02'0 0.2
2017-Sep-16 14:59N 38°48' W 077°02'0 0.5
2017-Sep-16 14:29N 38°48' W 077°02'1 2.6
2017-Sep-16 13:59N 38°47' W 077°01'0 0.0
2017-Sep-16 13:29N 38°47' W 077°01'0 0.0
2017-Sep-15 01:20N 38°47' W 077°01'1 4.4
2017-Sep-15 01:00N 38°48' W 077°02'0 0.3
2017-Sep-15 00:30N 38°48' W 077°02'0 0.2
2017-Sep-14 23:59N 38°48' W 077°02'2 4.5
2017-Sep-14 23:30N 38°50' W 077°02'1 2.7
2017-Sep-14 23:00N 38°52' W 077°02'3 5.8
2017-Sep-14 22:30N 38°49' W 077°02'0 0.8
2017-Sep-14 22:00N 38°48' W 077°02'0 0.1
2017-Sep-14 21:30N 38°48' W 077°02'0 0.0
2017-Sep-14 20:59N 38°48' W 077°02'0 0.0
2017-Sep-14 20:28N 38°48' W 077°02'0 0.0
2017-Sep-14 20:00N 38°48' W 077°02'0 0.0
2017-Sep-14 19:29N 38°48' W 077°02'0 0.0
2017-Sep-14 18:58N 38°48' W 077°02'0 0.0
2017-Sep-14 18:29N 38°48' W 077°02'0 0.0
2017-Sep-14 17:59N 38°48' W 077°02'0 0.0
2017-Sep-14 17:25N 38°48' W 077°02'0 0.0
2017-Sep-14 16:59N 38°48' W 077°02'0 0.0
2017-Sep-14 16:28N 38°48' W 077°02'0 0.0
2017-Sep-14 15:58N 38°48' W 077°02'0 0.0
2017-Sep-14 15:30N 38°48' W 077°02'0 0.0
2017-Sep-14 14:59N 38°48' W 077°02'0 0.0
2017-Sep-14 14:30N 38°48' W 077°02'  

Dump ship's entire track history